Oak Leaf, Texas
Current Conditions -  °F | °C
As of 5:15 PM on Wednesday 26 Nov 2014 (Local Time) from KJWY Reporting Station
Clear Clear  
Wind Chill: 59°   Ceiling: Unl
Heat Index: 59°   Visibility: 10mi
Dew Point: 37°   Wind: 6mph
Humidity: 43%   Direction: 330°NNW
Pressure: 30.24"   Gusts: NA
Location:  32.515°N, 96.8153°W
Report Text: KJWY 262315Z AUTO 33005KT 10SM CLR 15/03 A3024 RMK AO2 T01500026
Loading
Personal Weather Stations






























Interactive Weather Map New forecast layout! Learn more

10-Day Weather Forecast

Advertisements
Track Severe Weather on mobile